Time;durP1;ratioP1;P1;durP2;ratioP2;P2;SDS_P1;SDS_P2;PMS_P1;PMS_P2;Temp;Humidity;BMP_temperature;BMP_pressure;BME280_temperature;BME280_humidity;BME280_pressure;Samples;Min_cycle;Max_cycle;Signal;HPM_P1;HPM_P2
2020/12/19 00:01:35;;;;;;;4.38;2.65;;;13.10;86.60;;;;;;5005395;28;20053;-75
2020/12/19 00:04:01;;;;;;;5.00;2.35;;;13.10;86.60;;;;;;5005714;28;20025;-76
2020/12/19 00:06:27;;;;;;;8.07;2.88;;;13.10;86.60;;;;;;5005852;28;20394;-74
2020/12/19 00:08:53;;;;;;;6.05;2.38;;;13.10;86.60;;;;;;5006981;28;20033;-75
2020/12/19 00:11:20;;;;;;;6.03;2.38;;;13.10;86.60;;;;;;4989039;28;20064;-76
2020/12/19 00:13:46;;;;;;;4.75;2.53;;;13.10;86.60;;;;;;5005233;28;20034;-75
2020/12/19 00:16:16;;;;;;;5.80;2.58;;;13.10;86.60;;;;;;4988686;28;20030;-75
2020/12/19 00:18:43;;;;;;;4.22;2.60;;;13.10;86.60;;;;;;5005614;28;20034;-75
2020/12/19 00:21:10;;;;;;;7.97;2.78;;;13.10;86.60;;;;;;5004939;28;20048;-75
2020/12/19 00:23:37;;;;;;;4.78;2.05;;;13.10;86.70;;;;;;5007258;28;20026;-74
2020/12/19 00:26:04;;;;;;;9.20;3.00;;;13.10;86.60;;;;;;5005367;28;20064;-74
2020/12/19 00:28:30;;;;;;;9.25;3.00;;;13.10;86.60;;;;;;5005633;28;20111;-75
2020/12/19 00:30:56;;;;;;;3.97;2.28;;;13.10;86.60;;;;;;5006841;28;20025;-75
2020/12/19 00:33:23;;;;;;;6.38;3.15;;;13.10;86.60;;;;;;5005234;28;20061;-75
2020/12/19 00:35:49;;;;;;;4.72;2.28;;;13.10;86.60;;;;;;4988739;28;20061;-75
2020/12/19 00:38:16;;;;;;;5.40;2.50;;;13.00;86.50;;;;;;5004893;28;20133;-75
2020/12/19 00:40:42;;;;;;;4.32;2.28;;;13.10;86.60;;;;;;4988959;28;20045;-75
2020/12/19 00:43:08;;;;;;;5.65;2.70;;;13.00;86.50;;;;;;5005294;28;20030;-75
2020/12/19 00:45:34;;;;;;;6.13;2.83;;;13.10;86.60;;;;;;5006206;28;20544;-75
2020/12/19 00:48:00;;;;;;;7.53;2.72;;;13.10;86.70;;;;;;5004334;28;20482;-75
2020/12/19 00:50:26;;;;;;;4.70;2.58;;;13.00;86.50;;;;;;5004681;28;20033;-75
2020/12/19 00:52:52;;;;;;;9.20;3.10;;;13.00;86.50;;;;;;5004615;28;20034;-75
2020/12/19 00:55:18;;;;;;;4.18;2.35;;;13.00;86.50;;;;;;5006377;28;20053;-75
2020/12/19 00:57:44;;;;;;;7.38;2.45;;;13.00;86.50;;;;;;5005966;28;20127;-75
2020/12/19 01:00:10;;;;;;;4.53;2.33;;;13.00;86.50;;;;;;5004463;28;20026;-75
2020/12/19 01:02:37;;;;;;;5.32;2.65;;;13.00;86.50;;;;;;5006789;28;20046;-75
2020/12/19 01:05:05;;;;;;;6.40;2.30;;;13.00;86.50;;;;;;5006111;28;20042;-75
2020/12/19 01:07:32;;;;;;;5.85;2.55;;;13.00;86.50;;;;;;4988795;28;20402;-75
2020/12/19 01:09:58;;;;;;;4.20;2.83;;;13.00;86.50;;;;;;5006409;28;20104;-74
2020/12/19 01:12:24;;;;;;;6.32;3.28;;;12.90;86.40;;;;;;5006022;28;20108;-74
2020/12/19 01:14:50;;;;;;;6.13;2.58;;;12.90;86.40;;;;;;5004740;28;20037;-75
2020/12/19 01:17:16;;;;;;;4.35;2.45;;;13.00;86.50;;;;;;4987877;28;20529;-74
2020/12/19 01:19:43;;;;;;;6.60;2.33;;;13.00;86.60;;;;;;5005121;28;20400;-74
2020/12/19 01:22:08;;;;;;;5.93;2.72;;;12.90;86.40;;;;;;5004537;28;20096;-74
2020/12/19 01:24:35;;;;;;;5.68;2.78;;;13.00;86.60;;;;;;5004306;28;20378;-74
2020/12/19 01:27:01;;;;;;;6.22;2.97;;;13.00;86.60;;;;;;5006521;28;20077;-74
2020/12/19 01:29:27;;;;;;;3.08;2.50;;;12.90;86.40;;;;;;5004438;28;20096;-74
2020/12/19 01:31:53;;;;;;;3.60;2.22;;;12.90;86.50;;;;;;5005577;28;20041;-75
2020/12/19 01:34:19;;;;;;;6.70;3.13;;;13.00;86.60;;;;;;5008567;28;20021;-73
2020/12/19 01:36:46;;;;;;;4.28;2.72;;;12.90;86.40;;;;;;5010033;28;20068;-74
2020/12/19 01:39:12;;;;;;;5.00;2.72;;;12.90;86.50;;;;;;5007824;28;20026;-74
2020/12/19 01:41:38;;;;;;;4.50;2.53;;;13.00;86.60;;;;;;5009505;28;20029;-73
2020/12/19 01:44:05;;;;;;;3.80;2.70;;;12.90;86.40;;;;;;5008000;28;20030;-74
2020/12/19 01:47:08;;;;;;;5.43;2.60;;;13.00;86.60;;;;;;5009446;28;20080;-74
2020/12/19 01:49:35;;;;;;;4.78;2.33;;;12.90;86.50;;;;;;5007147;28;20092;-73
2020/12/19 01:52:02;;;;;;;6.57;3.05;;;13.00;86.60;;;;;;5007952;28;20022;-73
2020/12/19 01:54:29;;;;;;;4.93;2.75;;;13.00;86.60;;;;;;5009069;28;20034;-73
2020/12/19 01:56:57;;;;;;;3.83;2.30;;;12.90;86.40;;;;;;5009098;28;20038;-74
2020/12/19 01:59:25;;;;;;;4.68;2.72;;;12.90;86.40;;;;;;5007587;28;20111;-73
2020/12/19 02:01:53;;;;;;;3.00;2.20;;;13.00;86.60;;;;;;5009049;28;20454;-74
2020/12/19 02:04:21;;;;;;;7.68;2.58;;;13.00;86.60;;;;;;5008823;28;20033;-74
2020/12/19 02:06:51;;;;;;;3.40;2.60;;;13.00;86.60;;;;;;5008843;28;20030;-73
2020/12/19 02:09:19;;;;;;;3.88;2.17;;;13.00;86.60;;;;;;4991223;28;20405;-73
2020/12/19 02:11:46;;;;;;;4.50;1.88;;;13.00;86.60;;;;;;5008025;28;20038;-73
2020/12/19 02:14:13;;;;;;;5.40;2.90;;;12.90;86.40;;;;;;5007378;28;20033;-74
2020/12/19 02:17:02;;;;;;;3.55;2.75;;;12.90;86.50;;;;;;5008677;28;20470;-75
2020/12/19 02:19:29;;;;;;;4.65;3.30;;;13.00;86.70;;;;;;5006679;28;20049;-74
2020/12/19 02:21:56;;;;;;;5.10;2.67;;;13.00;86.60;;;;;;4990993;28;20296;-74
2020/12/19 02:24:22;;;;;;;4.38;2.90;;;12.90;86.40;;;;;;5008757;28;20029;-75
2020/12/19 02:26:49;;;;;;;5.50;2.60;;;12.90;86.40;;;;;;5007080;28;20124;-74
2020/12/19 02:29:16;;;;;;;3.92;2.72;;;13.00;86.60;;;;;;4990888;28;20411;-75
2020/12/19 02:31:44;;;;;;;4.50;2.15;;;12.90;86.50;;;;;;5007101;28;20026;-75
2020/12/19 02:34:10;;;;;;;3.15;2.35;;;13.00;86.60;;;;;;5007094;28;20125;-75
2020/12/19 02:36:37;;;;;;;6.20;2.33;;;12.90;86.50;;;;;;5008414;28;20049;-75
2020/12/19 02:39:05;;;;;;;5.30;3.35;;;12.90;86.50;;;;;;5008256;28;20034;-75
2020/12/19 02:41:37;;;;;;;6.57;2.53;;;12.90;86.50;;;;;;5006991;28;20103;-75
2020/12/19 02:44:05;;;;;;;6.50;2.50;;;12.90;86.50;;;;;;5007659;28;20431;-75
2020/12/19 02:46:31;;;;;;;4.93;2.65;;;12.90;86.50;;;;;;4992079;28;20095;-75
2020/12/19 02:48:57;;;;;;;3.85;2.80;;;12.90;86.50;;;;;;5009337;28;20050;-74
2020/12/19 02:51:23;;;;;;;4.55;2.50;;;12.90;86.50;;;;;;5010262;28;20044;-74
2020/12/19 02:53:49;;;;;;;6.25;2.72;;;12.90;86.60;;;;;;4993626;28;20136;-75
2020/12/19 02:56:15;;;;;;;8.48;2.70;;;12.90;86.60;;;;;;4993440;28;20102;-75
2020/12/19 02:58:41;;;;;;;4.95;2.70;;;12.90;86.60;;;;;;5009948;28;20044;-75
2020/12/19 03:01:07;;;;;;;4.55;2.33;;;12.90;86.60;;;;;;5011209;28;20095;-75
2020/12/19 03:03:33;;;;;;;7.95;2.20;;;12.80;86.40;;;;;;5011061;28;20092;-75
2020/12/19 03:05:59;;;;;;;5.13;2.50;;;12.90;86.70;;;;;;4993467;28;20034;-75
2020/12/19 03:08:25;;;;;;;6.20;2.83;;;12.80;86.50;;;;;;5011042;28;20116;-75
2020/12/19 03:10:51;;;;;;;5.13;2.20;;;12.80;87.00;;;;;;5011008;28;20030;-75
2020/12/19 03:13:17;;;;;;;3.97;2.28;;;12.80;86.50;;;;;;5011082;28;20119;-76
2020/12/19 03:15:43;;;;;;;5.47;2.55;;;12.80;86.50;;;;;;5009538;28;20219;-75
2020/12/19 03:18:09;;;;;;;6.55;2.42;;;12.90;86.70;;;;;;4993033;28;20049;-75
2020/12/19 03:20:35;;;;;;;3.58;2.45;;;12.90;86.70;;;;;;5009836;28;20057;-75
2020/12/19 03:23:01;;;;;;;4.72;2.15;;;12.80;86.50;;;;;;5009319;28;20038;-75
2020/12/19 03:25:26;;;;;;;5.85;2.42;;;12.80;86.50;;;;;;5009221;28;20053;-74
2020/12/19 03:27:53;;;;;;;4.45;2.28;;;12.80;86.50;;;;;;5009548;28;20250;-75
2020/12/19 03:30:20;;;;;;;4.57;2.15;;;12.80;86.50;;;;;;5009500;28;20034;-75
2020/12/19 03:32:46;;;;;;;4.88;2.75;;;12.80;86.50;;;;;;5009550;28;20026;-75
2020/12/19 03:35:12;;;;;;;5.90;2.47;;;12.80;86.50;;;;;;5009386;28;20418;-75
2020/12/19 03:37:38;;;;;;;7.47;2.72;;;12.80;86.50;;;;;;5005869;28;20393;-75
2020/12/19 03:40:04;;;;;;;4.05;2.20;;;12.80;86.50;;;;;;4996753;28;20128;-75
2020/12/19 03:42:30;;;;;;;3.30;2.10;;;12.70;86.30;;;;;;4990866;28;20121;-75
2020/12/19 03:44:56;;;;;;;3.88;2.50;;;12.70;86.30;;;;;;4990947;28;20125;-75
2020/12/19 03:47:22;;;;;;;4.22;2.15;;;12.70;86.30;;;;;;4990704;28;20046;-75
2020/12/19 03:49:49;;;;;;;5.32;2.35;;;12.70;86.40;;;;;;4990424;28;20049;-76
2020/12/19 03:52:14;;;;;;;2.50;2.10;;;12.70;86.40;;;;;;4990620;28;20342;-76
2020/12/19 03:54:40;;;;;;;3.65;2.40;;;12.70;86.40;;;;;;4990684;28;20030;-75
2020/12/19 03:57:06;;;;;;;4.18;2.70;;;12.60;86.30;;;;;;4989881;28;20069;-74
2020/12/19 03:59:32;;;;;;;4.00;1.98;;;12.60;86.30;;;;;;4990652;28;20074;-75
2020/12/19 04:01:58;;;;;;;4.75;2.30;;;12.60;86.30;;;;;;4990237;28;20109;-75
2020/12/19 04:04:24;;;;;;;5.38;2.45;;;12.50;86.20;;;;;;5005637;28;20026;-75
2020/12/19 04:06:50;;;;;;;3.15;2.40;;;12.50;86.20;;;;;;4990770;28;20260;-75
2020/12/19 04:09:16;;;;;;;2.90;2.22;;;12.50;86.20;;;;;;5005145;28;20285;-75
2020/12/19 04:11:42;;;;;;;5.53;2.63;;;12.50;86.20;;;;;;4990856;28;20085;-75
2020/12/19 04:14:08;;;;;;;5.97;2.50;;;12.50;86.30;;;;;;4990597;28;20034;-74
2020/12/19 04:16:34;;;;;;;3.65;2.03;;;12.50;86.30;;;;;;5005574;28;20134;-75
2020/12/19 04:19:00;;;;;;;5.22;2.00;;;12.40;86.10;;;;;;5005132;28;20042;-74
2020/12/19 04:21:25;;;;;;;7.20;2.28;;;12.40;86.10;;;;;;5004921;28;20033;-75
2020/12/19 04:23:51;;;;;;;11.32;2.85;;;12.50;86.30;;;;;;4990266;28;20034;-75
2020/12/19 04:26:17;;;;;;;2.35;1.67;;;12.40;86.10;;;;;;4990231;28;20332;-75
2020/12/19 04:28:43;;;;;;;3.72;2.30;;;12.40;86.10;;;;;;4990201;28;20120;-75
2020/12/19 04:31:09;;;;;;;5.18;2.08;;;12.40;86.20;;;;;;4990445;28;20054;-75
2020/12/19 04:33:35;;;;;;;4.80;2.20;;;12.40;86.20;;;;;;4989896;28;20030;-75
2020/12/19 04:36:01;;;;;;;5.90;2.40;;;12.40;86.20;;;;;;4990385;28;20076;-75
2020/12/19 04:38:27;;;;;;;3.72;2.33;;;12.40;86.20;;;;;;4990607;28;20061;-76
2020/12/19 04:40:55;;;;;;;3.97;2.05;;;12.40;86.20;;;;;;4989981;28;20514;-76
2020/12/19 04:43:21;;;;;;;4.40;2.17;;;12.30;86.00;;;;;;4990355;28;20031;-76
2020/12/19 04:45:48;;;;;;;6.00;2.10;;;12.30;86.10;;;;;;4989814;28;20034;-76
2020/12/19 04:48:17;;;;;;;6.43;2.10;;;12.30;86.10;;;;;;4989994;28;20109;-76
2020/12/19 04:50:46;;;;;;;3.85;2.20;;;12.20;85.90;;;;;;4989552;28;20039;-76
2020/12/19 04:53:20;;;;;;;3.42;2.35;;;12.20;85.90;;;;;;4989946;28;20034;-75
2020/12/19 04:55:46;;;;;;;;;;;12.20;86.00;;;;;;4990450;28;20035;-77
2020/12/19 04:58:18;;;;;;;5.57;2.47;;;12.20;86.00;;;;;;4989969;28;19936;-75
2020/12/19 05:00:49;;;;;;;6.82;2.13;;;12.20;85.90;;;;;;4990038;28;20030;-75
2020/12/19 05:03:15;;;;;;;3.00;1.92;;;12.10;85.80;;;;;;4990226;28;20034;-76
2020/12/19 05:05:45;;;;;;;4.78;2.20;;;12.10;85.80;;;;;;4989767;28;20089;-75
2020/12/19 05:08:12;;;;;;;5.65;2.13;;;12.00;85.70;;;;;;4992440;28;20041;-75
2020/12/19 05:10:38;;;;;;;7.20;2.40;;;12.00;86.20;;;;;;4994319;28;20041;-74
2020/12/19 05:13:05;;;;;;;4.10;1.80;;;12.00;85.80;;;;;;4993358;28;20058;-75
2020/12/19 05:15:31;;;;;;;3.08;1.95;;;11.90;85.70;;;;;;4993453;28;20026;-74
2020/12/19 05:17:59;;;;;;;4.20;2.25;;;11.90;85.70;;;;;;4993024;28;20053;-75
2020/12/19 05:20:29;;;;;;;4.93;2.33;;;11.90;85.70;;;;;;4991310;28;20029;-75
2020/12/19 05:22:56;;;;;;;2.67;1.73;;;11.90;85.70;;;;;;4992934;28;20482;-75
2020/12/19 05:25:24;;;;;;;5.40;2.42;;;11.90;85.80;;;;;;4993128;28;20130;-76
2020/12/19 05:27:50;;;;;;;9.25;2.65;;;11.80;85.70;;;;;;4975316;28;20522;-76
2020/12/19 05:30:18;;;;;;;4.85;2.13;;;11.80;85.70;;;;;;4992697;28;20031;-76
2020/12/19 05:32:50;;;;;;;3.05;2.05;;;11.80;85.70;;;;;;4991391;28;20030;-75
2020/12/19 05:35:21;;;;;;;4.43;2.38;;;11.70;85.50;;;;;;5007686;28;20041;-75
2020/12/19 05:38:00;;;;;;;6.13;2.40;;;11.70;85.60;;;;;;5007684;28;20077;-76
2020/12/19 05:40:28;;;;;;;3.42;2.03;;;11.70;85.60;;;;;;4991427;28;20113;-76
2020/12/19 05:42:55;;;;;;;7.45;2.58;;;11.70;85.60;;;;;;4991205;28;20100;-76
2020/12/19 05:45:23;;;;;;;4.47;2.28;;;11.70;85.70;;;;;;5007449;28;20030;-76
2020/12/19 05:47:50;;;;;;;5.78;2.60;;;11.70;85.70;;;;;;4997734;28;20434;-75
2020/12/19 05:50:17;;;;;;;6.53;2.75;;;11.60;85.50;;;;;;5008587;28;20328;-76
2020/12/19 05:52:43;;;;;;;4.53;2.38;;;11.60;85.50;;;;;;5009390;28;20493;-76
2020/12/19 05:55:11;;;;;;;4.88;1.92;;;11.60;85.60;;;;;;5007499;28;20090;-75
2020/12/19 05:57:38;;;;;;;6.57;1.90;;;11.60;85.60;;;;;;4991259;28;20084;-77
2020/12/19 06:00:06;;;;;;;3.95;2.38;;;11.50;85.50;;;;;;5011924;28;20088;-75
2020/12/19 06:02:34;;;;;;;3.78;2.00;;;11.50;85.50;;;;;;5011624;28;20404;-78
2020/12/19 06:05:04;;;;;;;2.90;1.50;;;11.50;85.50;;;;;;5013003;28;20486;-76
2020/12/19 06:07:37;;;;;;;6.40;2.17;;;11.50;85.50;;;;;;5014300;28;20084;-75
2020/12/19 06:10:05;;;;;;;4.18;2.03;;;11.40;85.40;;;;;;5009404;28;20034;-76
2020/12/19 06:12:52;;;;;;;6.25;2.25;;;11.50;85.60;;;;;;5011231;28;20033;-75
2020/12/19 06:15:47;;;;;;;4.78;2.25;;;11.40;85.50;;;;;;5009373;28;20042;-75
2020/12/19 06:18:26;;;;;;;8.45;2.47;;;11.30;85.30;;;;;;4964066;28;20096;-77
2020/12/19 06:20:53;;;;;;;6.00;2.70;;;11.40;85.50;;;;;;4989375;28;20034;-77
2020/12/19 06:23:19;;;;;;;15.10;2.47;;;11.30;85.40;;;;;;5007624;28;20037;-78
2020/12/19 06:25:46;;;;;;;6.82;2.30;;;11.40;85.60;;;;;;5009231;28;20025;-75
2020/12/19 06:28:38;;;;;;;5.43;2.47;;;11.40;85.70;;;;;;5007136;28;20073;-76
2020/12/19 06:31:08;;;;;;;4.68;1.85;;;11.30;85.60;;;;;;5007047;28;20041;-75
2020/12/19 06:33:36;;;;;;;5.45;1.92;;;11.30;85.50;;;;;;5007292;28;20026;-77
2020/12/19 06:36:04;;;;;;;4.70;2.42;;;11.30;85.50;;;;;;4990856;28;20096;-75
2020/12/19 06:38:41;;;;;;;5.70;2.22;;;11.30;85.60;;;;;;4990302;28;20361;-75
2020/12/19 06:41:07;;;;;;;5.15;1.85;;;11.30;85.60;;;;;;5006864;28;20026;-74
2020/12/19 06:43:33;;;;;;;4.97;2.00;;;11.20;85.50;;;;;;5006707;28;20037;-74
2020/12/19 06:45:59;;;;;;;7.93;2.53;;;11.30;85.60;;;;;;5006357;28;20029;-74
2020/12/19 06:48:34;;;;;;;6.50;2.33;;;11.30;85.60;;;;;;5006319;28;20054;-75
2020/12/19 06:51:02;;;;;;;3.17;1.73;;;11.30;85.70;;;;;;5006796;28;20040;-74
2020/12/19 06:53:30;;;;;;;4.78;2.08;;;11.30;85.60;;;;;;5007325;28;20442;-74
2020/12/19 06:55:57;;;;;;;3.55;1.90;;;11.20;85.50;;;;;;5006514;28;20064;-75
2020/12/19 06:58:33;;;;;;;4.93;1.85;;;11.20;85.50;;;;;;5007734;28;20030;-74
2020/12/19 07:01:00;;;;;;;4.78;2.33;;;11.20;85.50;;;;;;4990192;28;20543;-74
2020/12/19 07:03:44;;;;;;;3.95;2.00;;;11.20;85.50;;;;;;5006394;28;20113;-74
2020/12/19 07:06:14;;;;;;;5.72;2.38;;;11.20;85.50;;;;;;5006426;28;20569;-74
2020/12/19 07:08:42;;;;;;;4.90;1.90;;;11.20;85.50;;;;;;5006150;28;20062;-74
2020/12/19 07:11:35;;;;;;;5.30;2.03;;;11.20;85.50;;;;;;5007802;28;20034;-74
2020/12/19 07:14:02;;;;;;;7.45;1.92;;;11.10;85.30;;;;;;4998031;28;20041;-75
2020/12/19 07:16:49;;;;;;;6.00;2.20;;;11.10;85.30;;;;;;5005756;28;20042;-76
2020/12/19 07:19:26;;;;;;;3.08;1.60;;;11.10;85.30;;;;;;5006023;28;20520;-75
2020/12/19 07:21:55;;;;;;;2.95;2.00;;;11.00;85.10;;;;;;5000970;28;20022;-76
2020/12/19 07:24:22;;;;;;;4.45;2.10;;;11.00;85.10;;;;;;5004757;28;20370;-76
2020/12/19 07:26:48;;;;;;;6.18;2.35;;;11.00;85.20;;;;;;5022239;28;20474;-75
2020/12/19 07:29:17;;;;;;;5.32;1.60;;;11.00;85.20;;;;;;5007195;28;20508;-76
2020/12/19 07:31:45;;;;;;;4.05;1.90;;;11.00;85.20;;;;;;5006831;28;20121;-83
2020/12/19 07:34:11;;;;;;;7.38;2.50;;;11.00;85.40;;;;;;4990175;28;20042;-74
2020/12/19 07:36:42;;;;;;;7.30;2.25;;;10.90;85.20;;;;;;5005654;28;20056;-75
2020/12/19 07:39:09;;;;;;;4.60;2.10;;;11.00;85.50;;;;;;5001186;28;20340;-77
2020/12/19 07:41:35;;;;;;;6.53;2.13;;;11.00;85.50;;;;;;5005116;28;20037;-76
2020/12/19 07:44:12;;;;;;;7.10;2.00;;;11.00;85.40;;;;;;5004732;28;20036;-73
2020/12/19 07:46:52;;;;;;;4.63;1.83;;;11.00;85.40;;;;;;5022243;28;20034;-77
2020/12/19 07:49:36;;;;;;;4.38;2.00;;;11.00;85.40;;;;;;5021568;28;20125;-75
2020/12/19 07:52:11;;;;;;;7.30;2.58;;;11.00;85.30;;;;;;5005831;28;20033;-75
2020/12/19 07:54:38;;;;;;;6.30;1.88;;;10.90;85.20;;;;;;5002136;28;20041;-75
2020/12/19 07:57:05;;;;;;;4.63;2.08;;;10.90;85.10;;;;;;4987333;28;20050;-75
2020/12/19 07:59:32;;;;;;;6.75;2.20;;;10.90;85.20;;;;;;5004356;28;20030;-75
2020/12/19 08:02:02;;;;;;;3.83;2.13;;;10.90;85.20;;;;;;5006685;28;20034;-77
2020/12/19 08:04:31;;;;;;;7.68;2.33;;;10.90;85.20;;;;;;5021471;28;20033;-76
2020/12/19 08:06:58;;;;;;;5.13;1.90;;;10.80;85.10;;;;;;5021697;28;20060;-76
2020/12/19 08:09:24;;;;;;;2.72;1.42;;;10.80;85.10;;;;;;5005212;28;20493;-75
2020/12/19 08:11:52;;;;;;;5.88;1.92;;;10.80;85.10;;;;;;5004867;28;20462;-76
2020/12/19 08:14:20;;;;;;;6.60;2.03;;;10.80;85.20;;;;;;5005307;28;20034;-76
2020/12/19 08:16:47;;;;;;;2.63;1.77;;;10.70;85.00;;;;;;5006700;28;20041;-75
2020/12/19 08:19:22;;;;;;;3.72;1.83;;;10.70;85.00;;;;;;5006251;28;20026;-76
2020/12/19 08:21:50;;;;;;;4.72;1.88;;;10.70;85.10;;;;;;5006831;28;20284;-77
2020/12/19 08:24:17;;;;;;;5.50;1.92;;;10.70;85.10;;;;;;5004680;28;20457;-75
2020/12/19 08:26:43;;;;;;;9.10;2.95;;;10.70;85.10;;;;;;5007122;28;20504;-76
2020/12/19 08:29:09;;;;;;;5.50;1.95;;;10.70;85.10;;;;;;5005328;28;20041;-75
2020/12/19 08:31:37;;;;;;;6.82;2.60;;;10.60;85.00;;;;;;5006298;28;20069;-76
2020/12/19 08:34:11;;;;;;;8.68;2.28;;;10.60;85.00;;;;;;5006240;28;20488;-76
2020/12/19 08:36:46;;;;;;;4.78;2.03;;;10.60;85.10;;;;;;5006425;28;20042;-77
2020/12/19 08:39:15;;;;;;;3.83;2.08;;;10.50;84.90;;;;;;5005548;28;20030;-76
2020/12/19 08:41:42;;;;;;;7.32;1.98;;;10.60;85.10;;;;;;5004973;28;20478;-77
2020/12/19 08:44:24;;;;;;;7.70;2.35;;;10.60;85.10;;;;;;5012493;28;20104;-76
2020/12/19 08:47:02;;;;;;;5.30;2.47;;;10.60;85.10;;;;;;5013285;28;20523;-76
2020/12/19 08:49:28;;;;;;;4.10;2.30;;;10.60;85.10;;;;;;5011620;28;20037;-77
2020/12/19 08:51:55;;;;;;;6.10;2.50;;;10.50;84.90;;;;;;5012404;28;20045;-77
2020/12/19 08:54:22;;;;;;;4.93;2.33;;;10.60;85.10;;;;;;5012850;28;20029;-76
2020/12/19 08:56:50;;;;;;;7.53;2.63;;;10.50;84.90;;;;;;5013386;28;20504;-77
2020/12/19 08:59:27;;;;;;;8.90;2.40;;;10.50;84.90;;;;;;5009571;28;20061;-76
2020/12/19 09:01:57;;;;;;;7.32;2.15;;;10.50;85.00;;;;;;5012259;28;20081;-76
2020/12/19 09:04:23;;;;;;;8.60;2.35;;;10.50;85.50;;;;;;5027593;28;20034;-76
2020/12/19 09:06:53;;;;;;;12.20;2.60;;;10.50;85.00;;;;;;5011725;28;20049;-77
2020/12/19 09:09:29;;;;;;;6.95;2.13;;;10.50;85.00;;;;;;5010554;28;20089;-76
2020/12/19 09:12:11;;;;;;;7.43;2.35;;;10.50;85.00;;;;;;5010932;28;20034;-77
2020/12/19 09:14:37;;;;;;;7.22;2.33;;;10.50;85.10;;;;;;5012779;28;20061;-77
2020/12/19 09:17:03;;;;;;;10.63;3.35;;;10.60;85.20;;;;;;5012513;28;20112;-77
2020/12/19 09:19:29;;;;;;;10.23;2.15;;;10.50;85.00;;;;;;5011916;28;20041;-77
2020/12/19 09:21:55;;;;;;;8.32;2.35;;;10.60;85.20;;;;;;5012577;28;20176;-76
2020/12/19 09:24:23;;;;;;;7.53;2.40;;;10.60;85.20;;;;;;5012073;28;20466;-76
2020/12/19 09:26:49;;;;;;;7.28;3.22;;;10.60;85.20;;;;;;5010671;28;20076;-76
2020/12/19 09:29:16;;;;;;;5.35;2.25;;;10.70;85.40;;;;;;5012109;28;20441;-75
2020/12/19 09:31:42;;;;;;;7.13;1.92;;;10.70;85.40;;;;;;5012396;28;20037;-75
2020/12/19 09:34:08;;;;;;;9.43;2.55;;;10.70;85.40;;;;;;4994993;28;20030;-75
2020/12/19 09:36:35;;;;;;;8.00;2.40;;;10.70;85.40;;;;;;5012737;28;20123;-75
2020/12/19 09:39:01;;;;;;;8.75;1.98;;;10.80;85.50;;;;;;5010858;28;20110;-75
2020/12/19 09:41:28;;;;;;;11.32;2.78;;;10.80;85.50;;;;;;5012112;28;20030;-73
2020/12/19 09:43:54;;;;;;;4.60;1.83;;;10.90;85.70;;;;;;5012595;28;20425;-76
2020/12/19 09:46:20;;;;;;;6.95;3.03;;;10.80;85.50;;;;;;5012501;28;20033;-75
2020/12/19 09:48:46;;;;;;;7.60;2.50;;;10.90;85.70;;;;;;5012188;28;20046;-75
2020/12/19 09:51:12;;;;;;;7.78;2.35;;;10.90;85.70;;;;;;5010843;28;20046;-75
2020/12/19 09:53:38;;;;;;;8.77;3.33;;;10.90;85.60;;;;;;4992672;28;20048;-76
2020/12/19 09:56:05;;;;;;;5.18;1.98;;;11.00;85.80;;;;;;5007513;28;20059;-75
2020/12/19 09:58:31;;;;;;;5.57;1.77;;;11.00;85.80;;;;;;4991421;28;20108;-76
2020/12/19 10:00:58;;;;;;;4.47;2.00;;;11.00;85.80;;;;;;4990641;28;20129;-75
2020/12/19 10:03:24;;;;;;;6.15;2.63;;;11.10;86.00;;;;;;4991202;28;20064;-76
2020/12/19 10:05:49;;;;;;;5.63;2.40;;;11.10;86.00;;;;;;5007622;28;20544;-75
2020/12/19 10:08:17;;;;;;;7.97;2.75;;;11.10;86.00;;;;;;5005396;28;20429;-76
2020/12/19 10:10:43;;;;;;;11.85;3.08;;;11.10;85.90;;;;;;5008534;28;20061;-76
2020/12/19 10:13:13;;;;;;;10.70;3.15;;;11.20;86.10;;;;;;5007280;28;20336;-75
2020/12/19 10:15:40;;;;;;;5.78;2.95;;;11.30;86.20;;;;;;5006930;28;20564;-76
2020/12/19 10:18:06;;;;;;;10.18;2.92;;;11.30;86.20;;;;;;5007171;28;20076;-78
2020/12/19 10:20:34;;;;;;;8.63;2.58;;;11.30;86.10;;;;;;5006532;28;20022;-77
2020/12/19 10:23:00;;;;;;;4.28;1.83;;;11.40;86.10;;;;;;5007111;28;20124;-76
2020/12/19 10:25:26;;;;;;;7.13;2.20;;;11.40;86.00;;;;;;4989835;28;20112;-76
2020/12/19 10:27:52;;;;;;;16.95;2.85;;;11.50;86.10;;;;;;5007517;28;20034;-75
2020/12/19 10:30:18;;;;;;;10.95;2.95;;;11.50;86.10;;;;;;5006535;28;20088;-76
2020/12/19 10:32:45;;;;;;;3.83;2.40;;;11.50;86.10;;;;;;5006219;28;20464;-75
2020/12/19 10:35:11;;;;;;;7.72;2.97;;;11.60;86.20;;;;;;4990879;28;20080;-76
2020/12/19 10:37:37;;;;;;;7.80;2.22;;;11.60;86.20;;;;;;4989957;28;20045;-77
2020/12/19 10:40:04;;;;;;;6.70;2.20;;;11.70;86.30;;;;;;5023053;28;20040;-76
2020/12/19 10:42:31;;;;;;;9.13;2.53;;;11.80;86.40;;;;;;5008122;28;20090;-77
2020/12/19 10:44:56;;;;;;;5.85;2.45;;;11.80;86.30;;;;;;5007891;28;20026;-76
2020/12/19 10:47:22;;;;;;;7.63;2.72;;;11.80;86.30;;;;;;5007882;28;20520;-76
2020/12/19 10:49:48;;;;;;;7.20;2.47;;;11.80;86.20;;;;;;5006489;28;20527;-76
2020/12/19 10:52:14;;;;;;;8.25;3.03;;;11.80;86.20;;;;;;5005759;28;20141;-76
2020/12/19 10:54:40;;;;;;;9.27;3.00;;;11.80;86.20;;;;;;5007285;28;20825;-76
2020/12/19 10:57:06;;;;;;;8.68;3.03;;;11.80;86.10;;;;;;5005366;28;20046;-76
2020/12/19 10:59:32;;;;;;;7.57;3.00;;;11.80;86.10;;;;;;5022103;28;20544;-77
2020/12/19 11:01:58;;;;;;;7.60;2.50;;;11.80;86.10;;;;;;5006362;28;20030;-75
2020/12/19 11:04:25;;;;;;;10.70;2.78;;;11.80;86.00;;;;;;5005946;28;20458;-76
2020/12/19 11:06:51;;;;;;;9.45;3.08;;;11.80;86.00;;;;;;5006568;28;20120;-76
2020/12/19 11:09:17;;;;;;;8.95;2.38;;;11.80;86.00;;;;;;5005939;28;20065;-76
2020/12/19 11:11:51;;;;;;;10.05;2.97;;;11.80;85.90;;;;;;5003983;28;20034;-77
2020/12/19 11:14:17;;;;;;;9.80;3.72;;;11.80;85.90;;;;;;5006622;28;20790;-76
2020/12/19 11:16:43;;;;;;;9.10;2.90;;;11.80;86.00;;;;;;5006485;28;20128;-77
2020/12/19 11:19:09;;;;;;;10.02;3.22;;;11.80;86.00;;;;;;5005030;28;20025;-78
2020/12/19 11:21:45;;;;;;;11.85;3.22;;;11.80;86.00;;;;;;5006777;28;20124;-79
2020/12/19 11:24:12;;;;;;;12.40;4.63;;;11.90;86.20;;;;;;5006160;28;20072;-81
2020/12/19 11:26:40;;;;;;;8.23;3.90;;;11.90;86.30;;;;;;5005312;28;20026;-78
2020/12/19 11:29:07;;;;;;;12.93;4.43;;;12.00;86.70;;;;;;5005030;28;20041;-78
2020/12/19 11:31:33;;;;;;;12.75;6.85;;;12.10;86.80;;;;;;5007460;28;20026;-80
2020/12/19 11:33:59;;;;;;;11.60;6.65;;;12.20;87.00;;;;;;5006595;28;20037;-79
2020/12/19 11:36:25;;;;;;;15.05;6.10;;;12.20;87.00;;;;;;5007712;28;20037;-77
2020/12/19 11:38:51;;;;;;;17.13;7.10;;;12.30;87.10;;;;;;5006120;28;20033;-80
2020/12/19 11:41:24;;;;;;;13.32;6.75;;;12.40;87.30;;;;;;5006636;28;20050;-83
2020/12/19 11:43:51;;;;;;;15.43;5.32;;;12.40;87.40;;;;;;4990639;28;20177;-85
2020/12/19 11:46:18;;;;;;;11.43;6.32;;;12.40;87.40;;;;;;5022724;28;20264;-81
2020/12/19 11:48:44;;;;;;;7.65;5.35;;;12.50;87.50;;;;;;5007359;28;20402;-82
2020/12/19 11:51:10;;;;;;;15.05;6.25;;;12.50;87.50;;;;;;5006404;28;20034;-82
2020/12/19 11:53:36;;;;;;;10.45;5.15;;;12.60;87.50;;;;;;5005922;28;20033;-82
2020/12/19 11:56:04;;;;;;;10.18;4.88;;;12.50;87.30;;;;;;5006262;28;20030;-82
2020/12/19 11:58:30;;;;;;;11.38;5.20;;;12.50;87.30;;;;;;5006672;28;20411;-81
2020/12/19 12:00:56;;;;;;;8.65;4.85;;;12.60;87.50;;;;;;5007261;28;20032;-83
2020/12/19 12:03:22;;;;;;;10.27;4.20;;;12.50;87.30;;;;;;5004775;28;20038;-78
2020/12/19 12:05:49;;;;;;;9.20;5.10;;;12.50;87.30;;;;;;5005342;28;20034;-79
2020/12/19 12:08:15;;;;;;;10.68;4.95;;;12.50;87.30;;;;;;5006262;28;20030;-79
2020/12/19 12:10:43;;;;;;;11.57;5.40;;;12.50;87.30;;;;;;5006128;28;20495;-78
2020/12/19 12:13:09;;;;;;;11.10;4.65;;;12.50;87.20;;;;;;5006034;28;20036;-78
2020/12/19 12:15:35;;;;;;;12.82;5.43;;;12.50;87.20;;;;;;5006349;28;20060;-78
2020/12/19 12:18:01;;;;;;;8.02;4.32;;;12.50;87.20;;;;;;5005508;28;20045;-77
2020/12/19 12:20:27;;;;;;;14.10;5.63;;;12.50;87.10;;;;;;5005197;28;20472;-78
2020/12/19 12:22:53;;;;;;;13.15;5.00;;;12.50;87.10;;;;;;5006065;28;20079;-77
2020/12/19 12:25:19;;;;;;;18.75;5.38;;;12.50;87.10;;;;;;4988718;28;20112;-77
2020/12/19 12:27:45;;;;;;;11.45;4.88;;;12.40;86.80;;;;;;5005450;28;20141;-76
2020/12/19 12:30:11;;;;;;;8.40;4.53;;;12.40;86.80;;;;;;5004696;28;20026;-75
2020/12/19 12:32:37;;;;;;;6.93;4.25;;;12.40;86.80;;;;;;5006105;28;20090;-77
2020/12/19 12:35:03;;;;;;;11.45;4.78;;;12.40;86.90;;;;;;5006089;28;20033;-77
2020/12/19 12:37:29;;;;;;;11.45;4.25;;;12.40;86.80;;;;;;5005704;28;20144;-79
2020/12/19 12:39:55;;;;;;;10.75;4.32;;;12.40;86.80;;;;;;5004623;28;20448;-79
2020/12/19 12:42:22;;;;;;;9.30;3.88;;;12.40;86.80;;;;;;5004171;28;20037;-78
2020/12/19 12:44:49;;;;;;;8.10;3.92;;;12.40;86.80;;;;;;5004740;28;20062;-76
2020/12/19 12:47:15;;;;;;;10.27;3.92;;;12.40;86.80;;;;;;5005170;28;20573;-78
2020/12/19 12:49:41;;;;;;;9.05;4.43;;;12.40;86.80;;;;;;4987684;28;20064;-79